Time;durP1;ratioP1;P1;durP2;ratioP2;P2;SDS_P1;SDS_P2;PMS_P1;PMS_P2;Temp;Humidity;BMP_temperature;BMP_pressure;BME280_temperature;BME280_humidity;BME280_pressure;Samples;Min_cycle;Max_cycle;Signal;HPM_P1;HPM_P2
2022/07/05 00:01:43;;;;;;;3.03;2.83;;;17.30;88.70;;;;;;8308780;28;20179;-64
2022/07/05 00:05:44;;;;;;;3.20;2.90;;;17.30;5.00;;;;;;8305903;28;20456;-64
2022/07/05 00:09:53;;;;;;;3.37;3.07;;;17.30;1.00;;;;;;8302928;28;20188;-64
2022/07/05 00:13:54;;;;;;;3.50;2.37;;;17.30;99.90;;;;;;8304096;28;20191;-65
2022/07/05 00:17:54;;;;;;;2.90;2.70;;;17.40;99.90;;;;;;8309980;28;20273;-64
2022/07/05 00:21:55;;;;;;;2.70;2.50;;;17.50;99.90;;;;;;8311189;28;20197;-64
2022/07/05 00:25:56;;;;;;;2.83;2.63;;;17.60;99.90;;;;;;8309720;28;20325;-63
2022/07/05 00:29:57;;;;;;;2.90;2.50;;;17.60;99.90;;;;;;8307197;28;20209;-63
2022/07/05 00:33:57;;;;;;;2.83;2.60;;;17.70;99.90;;;;;;8322249;28;20236;-64
2022/07/05 00:37:58;;;;;;;2.97;2.77;;;17.70;99.90;;;;;;8307558;28;20279;-64
2022/07/05 00:42:00;;;;;;;2.40;2.20;;;17.80;99.90;;;;;;8340124;28;20189;-63
2022/07/05 00:46:01;;;;;;;3.60;2.77;;;17.70;99.90;;;;;;8303736;28;20196;-63
2022/07/05 00:50:03;;;;;;;3.87;3.00;;;17.70;1.00;;;;;;8309583;28;20289;-65
2022/07/05 00:54:06;;;;;;;3.00;2.47;;;17.70;90.90;;;;;;8311251;28;20210;-64
2022/07/05 00:58:07;;;;;;;2.63;2.43;;;17.80;1.00;;;;;;8311888;28;20190;-64
2022/07/05 01:02:08;;;;;;;2.70;2.23;;;17.80;99.90;;;;;;8311447;28;20187;-64
2022/07/05 01:06:10;;;;;;;4.83;2.13;;;17.90;99.90;;;;;;8311086;28;20210;-64
2022/07/05 01:10:11;;;;;;;2.50;2.13;;;18.00;99.90;;;;;;8315370;28;20186;-67
2022/07/05 01:14:13;;;;;;;3.63;2.00;;;18.10;99.90;;;;;;8311325;28;20239;-64
2022/07/05 01:18:14;;;;;;;2.60;2.00;;;18.00;99.90;;;;;;8313102;28;20210;-64
2022/07/05 01:22:19;;;;;;;2.43;2.10;;;18.00;99.90;;;;;;8311989;28;20194;-73
2022/07/05 01:26:20;;;;;;;1.97;1.80;;;18.00;99.90;;;;;;8314338;28;20256;-64
2022/07/05 01:30:21;;;;;;;2.63;1.90;;;17.90;99.90;;;;;;8313958;28;20183;-64
2022/07/05 01:34:22;;;;;;;2.20;2.00;;;17.80;99.90;;;;;;8312199;28;20180;-64
2022/07/05 01:38:25;;;;;;;2.23;1.80;;;17.70;99.90;;;;;;8308283;28;20187;-63
2022/07/05 01:42:26;;;;;;;1.80;1.70;;;17.60;1.00;;;;;;8314140;28;20191;-63
2022/07/05 01:46:32;;;;;;;4.20;1.83;;;17.50;1.00;;;;;;8310308;28;20203;-63
2022/07/05 01:50:45;;;;;;;2.60;1.90;;;17.50;1.00;;;;;;8311274;28;20293;-63
2022/07/05 01:54:46;;;;;;;2.10;1.90;;;17.60;1.00;;;;;;8310708;28;20186;-63
2022/07/05 01:58:48;;;;;;;3.80;1.90;;;17.50;1.00;;;;;;8307099;28;20186;-63
2022/07/05 02:02:49;;;;;;;1.80;1.43;;;17.50;1.00;;;;;;8307267;28;20183;-64
2022/07/05 02:06:50;;;;;;;5.03;1.83;;;17.50;1.00;;;;;;8308675;28;20214;-64
2022/07/05 02:10:51;;;;;;;2.50;1.33;;;17.60;1.00;;;;;;8309541;28;20190;-63
2022/07/05 02:14:51;;;;;;;3.30;1.70;;;17.50;1.00;;;;;;8310165;28;20182;-63
2022/07/05 02:18:52;;;;;;;2.03;1.53;;;17.50;15.00;;;;;;8313259;28;20193;-64
2022/07/05 02:22:53;;;;;;;1.70;1.60;;;17.50;91.80;;;;;;8310451;28;20277;-64
2022/07/05 02:26:54;;;;;;;2.03;1.70;;;17.50;28.70;;;;;;8313836;28;20222;-64
2022/07/05 02:30:55;;;;;;;1.90;1.80;;;17.40;1.00;;;;;;8306724;28;20197;-64
2022/07/05 02:34:55;;;;;;;2.40;1.83;;;17.40;99.90;;;;;;8306940;28;20198;-64
2022/07/05 02:38:56;;;;;;;2.63;1.83;;;17.40;99.90;;;;;;8309292;28;20210;-64
2022/07/05 02:42:57;;;;;;;1.97;1.50;;;17.30;99.90;;;;;;8313748;28;20195;-63
2022/07/05 02:46:58;;;;;;;1.67;1.40;;;17.20;99.90;;;;;;8316317;28;20215;-63
2022/07/05 02:50:59;;;;;;;1.77;1.67;;;17.20;99.90;;;;;;8307093;28;20203;-65
2022/07/05 02:55:00;;;;;;;1.97;1.80;;;17.30;1.00;;;;;;8316828;28;20187;-63
2022/07/05 02:59:00;;;;;;;3.63;2.13;;;17.30;1.00;;;;;;8305516;28;20233;-64
2022/07/05 03:03:01;;;;;;;2.60;2.20;;;17.30;1.00;;;;;;8305822;28;20278;-63
2022/07/05 03:07:02;;;;;;;3.37;2.47;;;17.30;1.00;;;;;;8312482;28;20233;-63
2022/07/05 03:11:03;;;;;;;1.90;1.70;;;17.30;1.00;;;;;;8306578;28;20175;-65
2022/07/05 03:15:04;;;;;;;2.23;1.90;;;17.30;1.00;;;;;;8310149;28;20193;-63
2022/07/05 03:19:05;;;;;;;3.73;2.00;;;17.30;1.00;;;;;;8307546;28;20201;-63
2022/07/05 03:23:06;;;;;;;2.73;2.20;;;17.30;83.70;;;;;;8308147;28;20190;-64
2022/07/05 03:27:07;;;;;;;3.27;2.00;;;17.30;99.90;;;;;;8308401;28;20217;-64
2022/07/05 03:31:08;;;;;;;2.07;1.87;;;17.20;99.90;;;;;;8307914;28;20187;-63
2022/07/05 03:35:09;;;;;;;1.77;1.67;;;17.30;99.90;;;;;;8311538;28;20194;-63
2022/07/05 03:39:09;;;;;;;1.83;1.73;;;17.30;99.90;;;;;;8305407;28;20663;-63
2022/07/05 03:43:10;;;;;;;1.73;1.63;;;17.30;81.10;;;;;;8308118;28;20218;-64
2022/07/05 03:47:12;;;;;;;1.83;1.70;;;17.30;59.30;;;;;;8313304;28;20202;-63
2022/07/05 03:51:13;;;;;;;2.47;1.50;;;17.40;26.40;;;;;;8306908;28;20222;-63
2022/07/05 03:55:14;;;;;;;2.13;1.60;;;17.40;1.00;;;;;;8303034;28;20187;-64
2022/07/05 03:59:15;;;;;;;2.13;1.73;;;17.50;1.00;;;;;;8303280;28;20203;-63
2022/07/05 04:03:15;;;;;;;1.80;1.70;;;17.50;1.00;;;;;;8305296;28;20208;-63
2022/07/05 04:07:16;;;;;;;1.93;1.73;;;17.60;1.00;;;;;;8326069;28;20291;-64
2022/07/05 04:11:17;;;;;;;2.10;1.80;;;17.60;1.00;;;;;;8307527;28;20193;-63
2022/07/05 04:15:18;;;;;;;1.87;1.70;;;17.60;1.00;;;;;;8304605;28;20213;-63
2022/07/05 04:19:18;;;;;;;1.70;1.60;;;17.70;1.00;;;;;;8311759;28;20269;-64
2022/07/05 04:23:19;;;;;;;3.30;1.80;;;17.70;1.00;;;;;;8309386;28;20195;-63
2022/07/05 04:27:20;;;;;;;1.90;1.53;;;17.90;99.90;;;;;;8303496;28;20297;-64
2022/07/05 04:31:21;;;;;;;2.47;1.57;;;18.00;99.90;;;;;;8309079;28;20183;-63
2022/07/05 04:35:22;;;;;;;1.97;1.80;;;18.30;99.90;;;;;;8308866;28;20187;-64
2022/07/05 04:39:23;;;;;;;2.17;1.60;;;18.40;99.90;;;;;;8309655;28;20191;-64
2022/07/05 04:43:24;;;;;;;2.27;1.63;;;18.60;14.60;;;;;;8316355;28;20182;-64
2022/07/05 04:47:28;;;;;;;2.57;1.63;;;18.70;1.00;;;;;;8315566;28;20245;-64
2022/07/05 04:51:29;;;;;;;1.63;1.53;;;18.90;1.00;;;;;;8308527;28;20214;-63
2022/07/05 04:55:30;;;;;;;2.37;1.53;;;19.00;1.00;;;;;;8309867;28;20187;-64
2022/07/05 04:59:30;;;;;;;2.17;1.40;;;19.20;1.00;;;;;;8325644;28;20192;-63
2022/07/05 05:03:31;;;;;;;1.70;1.40;;;19.40;1.00;;;;;;8309433;28;20197;-64
2022/07/05 05:07:32;;;;;;;1.80;1.50;;;19.60;1.00;;;;;;8308017;28;20225;-64
2022/07/05 05:11:33;;;;;;;2.27;1.90;;;19.60;1.00;;;;;;8311395;28;20201;-64
2022/07/05 05:15:34;;;;;;;3.47;1.80;;;19.60;1.00;;;;;;8314309;28;20186;-68
2022/07/05 05:19:35;;;;;;;4.03;2.10;;;19.60;26.10;;;;;;8316837;28;20291;-64
2022/07/05 05:23:36;;;;;;;2.30;1.90;;;19.60;96.40;;;;;;8315769;28;20295;-64
2022/07/05 05:27:49;;;;;;;5.03;2.10;;;19.60;99.90;;;;;;8312472;28;20227;-64
2022/07/05 05:31:50;;;;;;;3.67;2.17;;;19.80;74.30;;;;;;8310465;28;20218;-64
2022/07/05 05:35:50;;;;;;;2.57;2.10;;;19.80;1.00;;;;;;8311803;28;20195;-64
2022/07/05 05:39:51;;;;;;;2.73;1.87;;;20.10;1.00;;;;;;8304232;28;20186;-64
2022/07/05 05:43:52;;;;;;;3.20;1.80;;;20.40;1.00;;;;;;8307993;28;20292;-64
2022/07/05 05:47:55;;;;;;;2.60;1.60;;;20.70;99.90;;;;;;8310290;28;20282;-66
2022/07/05 05:51:56;;;;;;;2.73;1.57;;;21.10;99.90;;;;;;8309582;28;20207;-65
2022/07/05 05:55:57;;;;;;;3.23;1.80;;;21.40;99.90;;;;;;8309957;28;20198;-66
2022/07/05 05:59:58;;;;;;;3.23;1.97;;;21.70;99.90;;;;;;8319212;28;20201;-66
2022/07/05 06:03:58;;;;;;;2.40;1.80;;;21.80;99.90;;;;;;8310801;28;20194;-66
2022/07/05 06:07:59;;;;;;;3.40;1.70;;;22.10;99.90;;;;;;8309419;28;20291;-66
2022/07/05 06:12:00;;;;;;;1.50;1.30;;;22.30;99.90;;;;;;8313445;28;20244;-66
2022/07/05 06:16:01;;;;;;;2.53;1.13;;;22.40;95.00;;;;;;8312426;28;20206;-65
2022/07/05 06:20:08;;;;;;;4.53;1.80;;;22.40;83.00;;;;;;8309211;28;20190;-65
2022/07/05 06:24:08;;;;;;;1.57;1.27;;;22.40;49.90;;;;;;8308385;28;20193;-66
2022/07/05 06:28:09;;;;;;;2.27;1.30;;;22.40;48.40;;;;;;8309673;28;20210;-68
2022/07/05 06:32:10;;;;;;;2.47;1.50;;;22.40;53.50;;;;;;8304756;28;20186;-64
2022/07/05 06:36:11;;;;;;;3.50;1.83;;;22.30;68.90;;;;;;8312930;28;21036;-64
2022/07/05 06:40:14;;;;;;;2.07;1.47;;;22.20;60.30;;;;;;8306897;28;20198;-65
2022/07/05 06:44:14;;;;;;;6.63;1.73;;;22.20;65.70;;;;;;8303369;28;20202;-64
2022/07/05 06:48:15;;;;;;;4.73;2.00;;;22.20;45.20;;;;;;8309066;28;20216;-63
2022/07/05 06:52:16;;;;;;;2.20;1.83;;;22.00;44.10;;;;;;8307945;28;20203;-64
2022/07/05 06:56:17;;;;;;;2.57;1.60;;;21.90;59.90;;;;;;8306850;28;20194;-65
2022/07/05 07:00:18;;;;;;;4.67;1.67;;;21.70;99.10;;;;;;8312246;28;20252;-64
2022/07/05 07:04:19;;;;;;;2.57;1.60;;;21.60;95.10;;;;;;8308629;28;20207;-65
2022/07/05 07:12:39;;;;;;;2.80;2.00;;;22.20;74.70;;;;;;8308420;28;20194;-66
2022/07/05 07:16:40;;;;;;;2.00;1.27;;;22.80;31.80;;;;;;8309439;28;20195;-66
2022/07/05 07:20:41;;;;;;;1.70;1.30;;;23.30;5.70;;;;;;8308342;28;20186;-70
2022/07/05 07:24:41;;;;;;;1.37;1.10;;;23.80;1.00;;;;;;8311803;28;20190;-66
2022/07/05 07:28:42;;;;;;;2.80;1.07;;;23.90;1.00;;;;;;8303309;28;20263;-68
2022/07/05 07:32:44;;;;;;;3.47;1.23;;;23.80;1.00;;;;;;8337332;28;20213;-68
2022/07/05 07:36:45;;;;;;;2.20;1.20;;;23.90;1.00;;;;;;8312457;28;20194;-66
2022/07/05 07:40:46;;;;;;;3.17;1.40;;;23.70;1.00;;;;;;8306961;28;20284;-73
2022/07/05 07:44:47;;;;;;;4.33;1.37;;;23.50;1.00;;;;;;8307215;28;20345;-66
2022/07/05 07:48:47;;;;;;;1.93;1.30;;;23.40;1.00;;;;;;8309338;28;20225;-67
2022/07/05 07:52:48;;;;;;;1.70;1.20;;;23.30;1.00;;;;;;8304782;28;20260;-66
2022/07/05 07:56:49;;;;;;;7.77;1.70;;;23.90;1.00;;;;;;8306549;28;20199;-67
2022/07/05 08:00:50;;;;;;;4.20;1.47;;;24.30;1.00;;;;;;8304198;28;20202;-64
2022/07/05 08:04:51;;;;;;;3.67;1.20;;;24.20;1.00;;;;;;8315289;28;20199;-63
2022/07/05 08:08:52;;;;;;;1.33;0.97;;;24.50;1.00;;;;;;8307520;28;20195;-66
2022/07/05 08:12:52;;;;;;;2.70;1.00;;;24.80;1.00;;;;;;8307638;28;20241;-64
2022/07/05 08:16:53;;;;;;;2.53;1.10;;;24.50;1.00;;;;;;8305850;28;20206;-66
2022/07/05 08:25:14;;;;;;;1.57;0.80;;;24.60;1.00;;;;;;8308488;28;20294;-65
2022/07/05 08:29:15;;;;;;;3.60;0.83;;;24.90;1.00;;;;;;8307307;28;20186;-65
2022/07/05 08:33:16;;;;;;;0.97;0.90;;;25.30;1.00;;;;;;8321080;28;20240;-67
2022/07/05 08:37:16;;;;;;;2.07;1.10;;;25.60;1.00;;;;;;8302419;28;20194;-68
2022/07/05 08:41:20;;;;;;;1.35;0.63;;;25.70;1.00;;;;;;8304960;28;20201;-67
2022/07/05 08:45:21;;;;;;;2.13;1.03;;;25.70;1.00;;;;;;8307963;28;20218;-66
2022/07/05 08:49:25;;;;;;;2.40;1.30;;;25.30;1.00;;;;;;8305250;28;20274;-70
2022/07/05 08:53:26;;;;;;;1.93;1.00;;;25.20;1.00;;;;;;8307678;28;20307;-66
2022/07/05 08:57:27;;;;;;;1.52;1.10;;;25.40;1.00;;;;;;8303036;28;20313;-66
2022/07/05 09:01:31;;;;;;;5.97;4.00;;;25.80;1.00;;;;;;8335583;28;20201;-66
2022/07/05 09:05:41;;;;;;;2.20;1.52;;;26.00;1.00;;;;;;8307757;28;20218;-65
2022/07/05 09:09:43;;;;;;;1.13;1.00;;;25.70;1.00;;;;;;8302046;28;20186;-66
2022/07/05 09:13:49;;;;;;;6.77;1.50;;;25.60;1.00;;;;;;8308346;28;20503;-67
2022/07/05 09:17:50;;;;;;;4.20;1.35;;;25.50;1.00;;;;;;8307427;28;20190;-66
2022/07/05 09:22:02;;;;;;;1.95;0.90;;;26.00;1.00;;;;;;8315749;28;20270;-68
2022/07/05 09:26:03;;;;;;;3.47;1.08;;;25.80;1.00;;;;;;8312952;28;20453;-68
2022/07/05 09:30:04;;;;;;;2.08;0.90;;;25.60;1.00;;;;;;8312578;28;20190;-66
2022/07/05 09:34:08;;;;;;;3.83;1.30;;;25.80;1.00;;;;;;8309100;28;20689;-67
2022/07/05 09:38:20;;;;;;;2.22;1.13;;;26.20;1.00;;;;;;8322779;28;20186;-67
2022/07/05 09:42:24;;;;;;;2.40;0.77;;;26.40;1.00;;;;;;8310151;28;20187;-67
2022/07/05 09:46:30;;;;;;;0.90;0.70;;;26.50;1.00;;;;;;8306570;28;20206;-66
2022/07/05 09:50:35;;;;;;;3.15;0.98;;;26.60;1.00;;;;;;8312399;28;20203;-65
2022/07/05 09:54:36;;;;;;;1.35;0.70;;;26.10;1.00;;;;;;8340209;28;20198;-67
2022/07/05 09:58:37;;;;;;;4.20;1.15;;;26.20;1.00;;;;;;8317477;28;20290;-67
2022/07/05 10:02:38;;;;;;;1.92;1.02;;;26.10;1.00;;;;;;8313357;28;20265;-65
2022/07/05 10:06:39;;;;;;;4.45;1.30;;;25.90;1.00;;;;;;8336298;28;20221;-71
2022/07/05 10:10:42;;;;;;;1.75;0.90;;;26.10;1.00;;;;;;8318271;28;20187;-66
2022/07/05 10:14:43;;;;;;;4.47;1.00;;;26.30;1.00;;;;;;8307271;28;20179;-64
2022/07/05 10:18:47;;;;;;;2.92;1.00;;;26.30;1.00;;;;;;8305889;28;20190;-68
2022/07/05 10:22:47;;;;;;;0.80;0.70;;;26.60;1.00;;;;;;8315720;28;20222;-65
2022/07/05 10:26:49;;;;;;;1.60;0.75;;;26.80;1.00;;;;;;8312069;28;20214;-65
2022/07/05 10:30:50;;;;;;;2.38;0.90;;;27.20;1.00;;;;;;8309675;28;20265;-64
2022/07/05 10:34:52;;;;;;;1.20;0.73;;;27.40;1.00;;;;;;8311053;28;20225;-66
2022/07/05 10:38:53;;;;;;;1.17;0.82;;;27.40;1.00;;;;;;8310752;28;20186;-65
2022/07/05 10:43:02;;;;;;;1.80;0.90;;;26.70;1.00;;;;;;8313710;28;20195;-63
2022/07/05 10:47:12;;;;;;;1.48;0.88;;;26.00;1.00;;;;;;8305143;28;20207;-68
2022/07/05 10:51:14;;;;;;;2.00;0.65;;;26.20;1.00;;;;;;8305394;28;20340;-66
2022/07/05 10:55:19;;;;;;;0.82;0.70;;;26.60;1.00;;;;;;8303309;28;20191;-67
2022/07/05 10:59:19;;;;;;;2.28;0.77;;;27.10;1.00;;;;;;8309656;28;20187;-64
2022/07/05 11:03:37;;;;;;;2.33;0.73;;;27.60;1.00;;;;;;8312041;28;20198;-64
2022/07/05 11:07:57;;;;;;;5.03;1.13;;;27.20;1.00;;;;;;8308210;28;20219;-64
2022/07/05 11:11:58;;;;;;;1.17;0.80;;;27.00;1.00;;;;;;8299836;28;20211;-65
2022/07/05 11:16:34;;;;;;;1.60;0.80;;;26.90;1.00;;;;;;8304555;28;20222;-64
2022/07/05 11:20:34;;;;;;;1.17;0.60;;;26.80;1.00;;;;;;8270897;28;20236;-70
2022/07/05 11:24:37;;;;;;;3.72;0.70;;;27.30;1.00;;;;;;8266124;28;20183;-66
2022/07/05 11:28:48;;;;;;;2.03;0.70;;;27.50;1.00;;;;;;8271657;28;20293;-72
2022/07/05 11:32:49;;;;;;;0.77;0.40;;;27.70;1.00;;;;;;8269466;28;20439;-66
2022/07/05 11:37:16;;;;;;;2.03;0.70;;;28.00;1.00;;;;;;8265675;28;20302;-67
2022/07/05 11:41:16;;;;;;;0.65;0.47;;;27.40;1.00;;;;;;8300716;28;20389;-66
2022/07/05 11:45:17;;;;;;;0.98;0.63;;;26.80;1.00;;;;;;8265151;28;20392;-68
2022/07/05 11:49:23;;;;;;;1.95;0.68;;;26.50;1.00;;;;;;8298657;28;20184;-65
2022/07/05 11:53:31;;;;;;;1.70;0.65;;;26.80;1.00;;;;;;8302772;28;20204;-65
2022/07/05 11:57:32;;;;;;;0.80;0.38;;;26.70;1.00;;;;;;8271615;28;20218;-68
2022/07/05 12:01:44;;;;;;;2.05;0.40;;;26.80;1.00;;;;;;8307478;28;20221;-65
2022/07/05 12:05:44;;;;;;;1.70;0.70;;;27.00;1.00;;;;;;8268470;28;20237;-62
2022/07/05 12:14:05;;;;;;;1.80;0.70;;;27.20;1.00;;;;;;8310430;28;20184;-69
2022/07/05 12:18:08;;;;;;;1.58;0.50;;;27.00;1.00;;;;;;8306498;28;20518;-65
2022/07/05 12:22:09;;;;;;;1.33;0.90;;;27.00;1.00;;;;;;8299834;28;20252;-66
2022/07/05 12:26:10;;;;;;;2.40;0.70;;;27.00;1.00;;;;;;8301673;28;20202;-64
2022/07/05 12:30:11;;;;;;;1.15;0.73;;;26.80;1.00;;;;;;8304377;28;20186;-63
2022/07/05 12:34:17;;;;;;;2.40;0.63;;;26.70;1.00;;;;;;8306937;28;20179;-66
2022/07/05 12:38:20;;;;;;;4.47;1.00;;;26.80;1.00;;;;;;8322885;28;20193;-64
2022/07/05 12:42:37;;;;;;;1.63;0.68;;;27.20;1.00;;;;;;8310192;28;20522;-64
2022/07/05 12:46:40;;;;;;;1.48;0.68;;;27.60;1.00;;;;;;8307795;28;20210;-63
2022/07/05 12:50:50;;;;;;;5.53;0.50;;;27.70;1.00;;;;;;8309882;28;20213;-62
2022/07/05 12:59:29;;;;;;;2.15;0.65;;;27.70;1.00;;;;;;8310902;28;20206;-65
2022/07/05 13:03:56;;;;;;;3.13;0.70;;;27.70;1.00;;;;;;8306799;28;20273;-65
2022/07/05 13:07:56;;;;;;;1.65;0.65;;;27.40;1.00;;;;;;8308530;28;20210;-66
2022/07/05 13:12:24;;;;;;;3.22;0.73;;;27.20;99.90;;;;;;8313557;28;20214;-66
2022/07/05 13:16:25;;;;;;;0.88;0.50;;;27.30;1.00;;;;;;8312575;28;20194;-63
2022/07/05 13:20:26;;;;;;;1.40;0.60;;;27.40;1.00;;;;;;8307122;28;20196;-63
2022/07/05 13:24:27;;;;;;;2.97;0.68;;;27.60;1.00;;;;;;8310245;28;20186;-63
2022/07/05 13:28:27;;;;;;;3.17;0.70;;;27.00;99.90;;;;;;8307583;28;20219;-67
2022/07/05 13:32:28;;;;;;;2.70;0.77;;;26.80;1.00;;;;;;8313981;28;20261;-69
2022/07/05 13:36:29;;;;;;;2.17;0.77;;;26.70;1.00;;;;;;8315597;28;20195;-63
2022/07/05 13:40:30;;;;;;;1.67;0.80;;;26.80;1.00;;;;;;8314368;28;20194;-63
2022/07/05 13:44:32;;;;;;;1.50;0.70;;;27.00;1.00;;;;;;8306524;28;20301;-67
2022/07/05 13:48:33;;;;;;;1.60;0.70;;;27.00;99.90;;;;;;8314935;28;20225;-66
2022/07/05 13:52:34;;;;;;;1.10;0.82;;;27.10;1.00;;;;;;8309516;28;20202;-66
2022/07/05 13:56:36;;;;;;;2.58;0.55;;;27.30;1.00;;;;;;8316427;28;20244;-69
2022/07/05 14:00:37;;;;;;;2.60;0.60;;;27.40;99.90;;;;;;8312194;28;20393;-64
2022/07/05 14:04:38;;;;;;;1.48;0.43;;;27.70;99.90;;;;;;8310336;28;20231;-65
2022/07/05 14:08:39;;;;;;;1.75;0.60;;;28.20;99.90;;;;;;8309124;28;20219;-64
2022/07/05 14:12:40;;;;;;;1.40;0.60;;;28.60;99.90;;;;;;8312640;28;20186;-66
2022/07/05 14:16:41;;;;;;;2.05;1.20;;;28.40;99.90;;;;;;8310247;28;20187;-63
2022/07/05 14:20:43;;;;;;;2.85;0.75;;;28.10;99.90;;;;;;8296862;28;20222;-63
2022/07/05 14:24:43;;;;;;;1.00;0.52;;;28.20;99.90;;;;;;8320277;28;20305;-67
2022/07/05 14:28:44;;;;;;;1.42;0.73;;;28.00;99.90;;;;;;8319092;28;20237;-65
2022/07/05 14:32:45;;;;;;;1.50;0.60;;;27.80;99.90;;;;;;8307759;28;20198;-64
2022/07/05 14:36:46;;;;;;;2.53;0.65;;;27.70;99.90;;;;;;8309239;28;20183;-65
2022/07/05 14:40:46;;;;;;;1.00;0.65;;;27.90;99.90;;;;;;8300619;28;20197;-62
2022/07/05 14:44:47;;;;;;;2.33;1.15;;;27.70;99.90;;;;;;8296862;28;20296;-68
2022/07/05 14:48:48;;;;;;;4.63;1.17;;;27.40;99.90;;;;;;8300913;28;20361;-66
2022/07/05 14:52:49;;;;;;;1.50;0.70;;;27.70;99.90;;;;;;8298870;28;20289;-65
2022/07/05 14:56:50;;;;;;;2.00;0.80;;;27.70;99.90;;;;;;8309992;28;20193;-68
2022/07/05 15:00:51;;;;;;;1.45;0.77;;;27.50;99.90;;;;;;8309604;28;20503;-64
2022/07/05 15:04:52;;;;;;;1.80;0.80;;;26.90;99.90;;;;;;8304580;28;20202;-69
2022/07/05 15:08:53;;;;;;;2.20;0.90;;;26.60;99.90;;;;;;8324347;28;20238;-66
2022/07/05 15:12:54;;;;;;;1.75;1.20;;;26.80;99.90;;;;;;8315389;28;20194;-66
2022/07/05 15:16:55;;;;;;;2.15;1.40;;;27.10;99.90;;;;;;8309037;28;20190;-68
2022/07/05 15:20:56;;;;;;;3.03;1.50;;;27.30;99.90;;;;;;8307676;28;20196;-70
2022/07/05 15:24:56;;;;;;;3.35;1.58;;;27.10;99.90;;;;;;8310245;28;20190;-70
2022/07/05 15:29:04;;;;;;;2.10;1.70;;;27.20;99.90;;;;;;8308097;28;20238;-66
2022/07/05 15:33:07;;;;;;;1.73;1.30;;;27.20;99.90;;;;;;8308928;28;20186;-72
2022/07/05 15:37:07;;;;;;;2.40;1.55;;;27.00;99.90;;;;;;8320219;28;20183;-71
2022/07/05 15:41:09;;;;;;;3.55;1.80;;;26.90;99.90;;;;;;8307204;28;20187;-69
2022/07/05 15:45:10;;;;;;;1.85;1.67;;;26.70;99.90;;;;;;8307578;28;20512;-69
2022/07/05 15:49:11;;;;;;;2.20;1.50;;;27.00;99.90;;;;;;8305572;28;20183;-68
2022/07/05 15:53:11;;;;;;;3.70;1.00;;;27.40;99.90;;;;;;8323267;28;20222;-65
2022/07/05 15:57:12;;;;;;;1.05;0.95;;;27.10;99.90;;;;;;8305517;28;20183;-68
2022/07/05 16:01:13;;;;;;;2.65;0.95;;;27.00;99.90;;;;;;8311214;28;20186;-66
2022/07/05 16:05:14;;;;;;;2.30;1.50;;;27.40;99.90;;;;;;8299968;28;20198;-70
2022/07/05 16:09:15;;;;;;;1.40;1.23;;;27.10;99.90;;;;;;8292677;28;20218;-68
2022/07/05 16:13:17;;;;;;;2.83;1.50;;;26.80;99.90;;;;;;8300105;28;20298;-68
2022/07/05 16:17:17;;;;;;;2.05;1.67;;;26.50;99.90;;;;;;8296528;28;20186;-70
2022/07/05 16:21:18;;;;;;;3.25;1.90;;;26.30;99.90;;;;;;8302179;28;20183;-71
2022/07/05 16:25:19;;;;;;;5.67;2.50;;;26.00;99.90;;;;;;8312241;28;20198;-73
2022/07/05 16:29:20;;;;;;;4.10;1.83;;;25.80;99.90;;;;;;8314422;28;20188;-69
2022/07/05 16:33:21;;;;;;;2.33;1.30;;;25.90;1.00;;;;;;8305852;28;20190;-67
2022/07/05 16:37:21;;;;;;;2.77;1.40;;;25.60;99.90;;;;;;8313958;28;20195;-67
2022/07/05 16:41:23;;;;;;;2.10;1.10;;;25.40;1.00;;;;;;8307423;28;20209;-71
2022/07/05 16:45:23;;;;;;;1.87;1.03;;;25.40;1.00;;;;;;8341866;28;20508;-69
2022/07/05 16:49:24;;;;;;;2.10;1.57;;;25.40;1.00;;;;;;8309726;28;20457;-72
2022/07/05 16:53:25;;;;;;;2.73;1.20;;;25.40;1.00;;;;;;8309551;28;20210;-74
2022/07/05 16:57:26;;;;;;;4.20;1.10;;;25.30;1.00;;;;;;8320952;28;20193;-68
2022/07/05 17:01:27;;;;;;;3.10;1.03;;;25.50;1.00;;;;;;8306570;28;20195;-70
2022/07/05 17:05:28;;;;;;;1.47;1.23;;;25.70;1.00;;;;;;8301722;28;20286;-74
2022/07/05 17:09:29;;;;;;;1.87;1.07;;;25.90;1.00;;;;;;8307879;28;20183;-67
2022/07/05 17:13:30;;;;;;;1.80;0.83;;;25.80;1.00;;;;;;8315323;28;20187;-71
2022/07/05 17:17:31;;;;;;;3.27;1.20;;;25.60;1.00;;;;;;8302855;28;20194;-68
2022/07/05 17:21:34;;;;;;;1.77;0.97;;;25.40;1.00;;;;;;8304055;28;20194;-67
2022/07/05 17:25:34;;;;;;;3.33;1.30;;;25.80;1.00;;;;;;8308927;28;20203;-73
2022/07/05 17:29:35;;;;;;;2.00;1.10;;;26.00;1.00;;;;;;8323811;28;20214;-73
2022/07/05 17:33:36;;;;;;;2.43;1.50;;;25.80;1.00;;;;;;8322997;28;20187;-73
2022/07/05 17:37:37;;;;;;;2.87;1.30;;;25.40;1.00;;;;;;8310979;28;20195;-69
2022/07/05 17:41:38;;;;;;;1.57;1.20;;;25.00;1.00;;;;;;8310545;28;20190;-73
2022/07/05 17:45:39;;;;;;;2.13;1.60;;;24.80;1.00;;;;;;8327774;28;20206;-68
2022/07/05 17:49:40;;;;;;;2.47;1.00;;;24.50;1.00;;;;;;8311831;28;20299;-71
2022/07/05 17:53:41;;;;;;;1.80;1.30;;;24.30;1.00;;;;;;8312353;28;20217;-69
2022/07/05 17:57:42;;;;;;;4.83;1.40;;;24.40;1.00;;;;;;8312509;28;20462;-67
2022/07/05 18:01:43;;;;;;;2.83;1.70;;;24.50;1.00;;;;;;8305843;28;20198;-67
2022/07/05 18:05:44;;;;;;;2.03;1.40;;;25.00;1.00;;;;;;8305224;28;20211;-68
2022/07/05 18:09:45;;;;;;;1.57;0.80;;;26.10;1.00;;;;;;8304056;28;20187;-69
2022/07/05 18:13:46;;;;;;;4.30;1.15;;;27.10;1.00;;;;;;8304581;28;20194;-67
2022/07/05 18:17:46;;;;;;;6.72;1.20;;;28.10;1.00;;;;;;8307412;28;20210;-67
2022/07/05 18:21:47;;;;;;;4.15;1.45;;;28.40;1.00;;;;;;8312558;28;20219;-67
2022/07/05 18:25:48;;;;;;;2.08;1.35;;;27.90;1.00;;;;;;8311490;28;20221;-71
2022/07/05 18:29:49;;;;;;;5.40;1.98;;;27.10;1.00;;;;;;8305937;28;20182;-67
2022/07/05 18:33:50;;;;;;;4.30;1.90;;;26.60;1.00;;;;;;8308323;28;20269;-66
2022/07/05 18:37:51;;;;;;;2.83;1.48;;;26.60;1.00;;;;;;8313010;28;20186;-66
2022/07/05 18:41:52;;;;;;;3.22;1.80;;;26.60;1.00;;;;;;8314815;28;20221;-66
2022/07/05 18:45:53;;;;;;;1.67;1.33;;;26.10;1.00;;;;;;8310546;28;20235;-66
2022/07/05 18:49:54;;;;;;;2.43;1.63;;;25.30;1.00;;;;;;8318345;28;20234;-67
2022/07/05 18:53:55;;;;;;;2.27;1.50;;;24.70;1.00;;;;;;8305443;28;20190;-66
2022/07/05 18:57:55;;;;;;;3.13;1.60;;;24.00;1.00;;;;;;8311343;28;20210;-64
2022/07/05 19:01:56;;;;;;;2.37;1.63;;;23.50;1.00;;;;;;8307876;28;20217;-66
2022/07/05 19:14:35;;;;;;;3.37;1.60;;;22.50;1.00;;;;;;8295248;28;20291;-64
2022/07/05 19:18:36;;;;;;;3.63;1.83;;;22.00;1.00;;;;;;8306522;28;20196;-65
2022/07/05 19:22:39;;;;;;;3.03;1.80;;;21.60;1.00;;;;;;8305500;28;20257;-68
2022/07/05 19:26:39;;;;;;;6.07;1.60;;;21.20;1.00;;;;;;8313784;28;20228;-68
2022/07/05 19:30:40;;;;;;;2.83;1.90;;;20.90;1.00;;;;;;8304556;28;20201;-66
2022/07/05 19:34:41;;;;;;;4.10;1.80;;;20.60;1.00;;;;;;8308465;28;20306;-65
2022/07/05 19:38:42;;;;;;;1.40;1.23;;;20.20;1.00;;;;;;8302660;28;20290;-65
2022/07/05 19:42:43;;;;;;;2.40;1.80;;;19.90;1.00;;;;;;8308827;28;20222;-66
2022/07/05 19:46:43;;;;;;;3.47;2.10;;;20.00;1.00;;;;;;8305429;28;20202;-65
2022/07/05 19:50:44;;;;;;;4.03;1.93;;;20.20;1.00;;;;;;8313986;28;20198;-71
2022/07/05 19:54:45;;;;;;;3.93;2.60;;;20.40;1.00;;;;;;8308617;28;20500;-70
2022/07/05 19:58:46;;;;;;;4.83;2.30;;;20.80;1.00;;;;;;8308625;28;20187;-66
2022/07/05 20:02:46;;;;;;;2.63;2.17;;;21.00;1.00;;;;;;8320381;28;20189;-66
2022/07/05 20:06:47;;;;;;;3.80;2.10;;;21.20;1.00;;;;;;8306559;28;20206;-64
2022/07/05 20:10:49;;;;;;;2.60;2.10;;;21.10;1.00;;;;;;8307412;28;20207;-65
2022/07/05 20:14:50;;;;;;;2.33;2.00;;;20.90;1.00;;;;;;8303554;28;20214;-65
2022/07/05 20:18:51;;;;;;;3.77;1.90;;;20.60;1.00;;;;;;8302834;28;20526;-65
2022/07/05 20:22:52;;;;;;;3.67;2.00;;;20.20;1.00;;;;;;8305447;28;20195;-65
2022/07/05 20:26:53;;;;;;;4.37;1.87;;;20.00;1.00;;;;;;8309704;28;20215;-65
2022/07/05 20:30:54;;;;;;;7.63;2.20;;;19.90;1.00;;;;;;8311789;28;20233;-65
2022/07/05 20:34:55;;;;;;;4.23;2.27;;;20.00;1.00;;;;;;8302062;28;20186;-64
2022/07/05 20:38:56;;;;;;;3.03;1.90;;;19.70;1.00;;;;;;8323875;28;20281;-64
2022/07/05 20:42:57;;;;;;;3.17;1.60;;;19.50;1.00;;;;;;8298491;28;20629;-65
2022/07/05 20:46:58;;;;;;;2.37;1.80;;;19.40;1.00;;;;;;8297411;28;20210;-66
2022/07/05 20:50:59;;;;;;;2.97;1.77;;;19.30;1.00;;;;;;8300386;28;20225;-65
2022/07/05 20:55:00;;;;;;;1.90;1.47;;;19.00;1.00;;;;;;8302232;28;20190;-65
2022/07/05 20:59:00;;;;;;;3.23;2.00;;;18.90;8.00;;;;;;8295384;28;20226;-65
2022/07/05 21:03:03;;;;;;;3.70;2.00;;;18.70;13.00;;;;;;8302594;28;20191;-65
2022/07/05 21:07:04;;;;;;;3.73;2.03;;;19.00;74.70;;;;;;8302518;28;20313;-65
2022/07/05 21:11:05;;;;;;;3.27;2.20;;;19.00;12.90;;;;;;8311106;28;20187;-65
2022/07/05 21:15:06;;;;;;;3.43;2.13;;;18.60;28.70;;;;;;8315544;28;20950;-65
2022/07/05 21:19:07;;;;;;;3.47;2.10;;;18.20;87.90;;;;;;8318648;28;20194;-64
2022/07/05 21:23:08;;;;;;;2.23;1.77;;;17.80;99.90;;;;;;8311998;28;20289;-65
2022/07/05 21:27:09;;;;;;;2.93;1.73;;;17.50;99.90;;;;;;8307278;28;20202;-76
2022/07/05 21:31:10;;;;;;;1.80;1.63;;;17.30;99.90;;;;;;8317088;28;20205;-64
2022/07/05 21:35:11;;;;;;;1.87;1.60;;;17.10;99.90;;;;;;8319662;28;20190;-64